createdAt,value
2022-12-03T00:01:48.055Z,1
2022-12-03T00:11:48.178Z,1
2022-12-03T00:21:48.048Z,1
2022-12-03T00:31:48.175Z,1
2022-12-03T00:41:48.263Z,1
2022-12-03T00:51:48.166Z,1
2022-12-03T01:01:48.327Z,1
2022-12-03T01:11:48.191Z,1
2022-12-03T01:21:48.269Z,1
2022-12-03T01:31:48.247Z,1
2022-12-03T01:41:48.296Z,1
2022-12-03T01:51:48.186Z,1
2022-12-03T02:01:48.333Z,1
2022-12-03T02:11:48.194Z,1
2022-12-03T02:21:48.245Z,1
2022-12-03T02:31:48.434Z,1
2022-12-03T02:41:48.280Z,1
2022-12-03T02:51:48.374Z,1
2022-12-03T03:01:48.266Z,1
2022-12-03T03:11:48.377Z,1
2022-12-03T03:21:48.236Z,1
2022-12-03T03:31:48.447Z,1
2022-12-03T03:41:48.273Z,1
2022-12-03T03:51:48.375Z,2
2022-12-03T04:01:48.510Z,1
2022-12-03T04:11:48.379Z,1
2022-12-03T04:21:48.434Z,1
2022-12-03T04:31:48.357Z,1
2022-12-03T04:41:48.446Z,1
2022-12-03T04:51:48.358Z,1
2022-12-03T05:01:48.480Z,2
2022-12-03T05:11:48.354Z,1
2022-12-03T05:21:48.425Z,1
2022-12-03T05:31:48.536Z,1
2022-12-03T05:41:48.432Z,2
2022-12-03T05:51:50.541Z,1
2022-12-03T06:01:48.413Z,1
2022-12-03T06:11:48.545Z,1
2022-12-03T06:21:48.410Z,1
2022-12-03T06:31:48.536Z,1
2022-12-03T06:41:48.639Z,1
2022-12-03T06:51:48.533Z,1
2022-12-03T07:01:48.635Z,2
2022-12-03T07:11:48.525Z,3
2022-12-03T07:21:48.600Z,2
2022-12-03T07:31:48.571Z,5
2022-12-03T07:41:48.607Z,15
2022-12-03T07:51:48.513Z,34
2022-12-03T08:01:48.585Z,56
2022-12-03T08:11:48.742Z,67
2022-12-03T08:21:49.587Z,78
2022-12-03T08:31:48.761Z,82
2022-12-03T08:41:48.597Z,85
2022-12-03T08:51:48.693Z,87
2022-12-03T09:01:48.595Z,88
2022-12-03T09:11:48.705Z,90
2022-12-03T09:21:48.587Z,90
2022-12-03T09:31:48.767Z,90
2022-12-03T09:41:48.806Z,90
2022-12-03T09:51:48.698Z,92
2022-12-03T10:01:48.841Z,92
2022-12-03T10:11:48.857Z,92
2022-12-03T10:41:48.704Z,93
2022-12-03T10:51:48.834Z,93
2022-12-03T11:01:48.731Z,93
2022-12-03T11:11:48.827Z,94
2022-12-03T11:21:48.751Z,94
2022-12-03T11:31:48.915Z,94
2022-12-03T11:41:48.695Z,94
2022-12-03T11:51:48.800Z,94
2022-12-03T12:01:48.877Z,94
2022-12-03T12:11:48.799Z,94
2022-12-03T12:21:48.882Z,94
2022-12-03T12:31:53.592Z,92
2022-12-03T12:41:48.887Z,94
2022-12-03T12:51:48.792Z,94
2022-12-03T13:01:49.090Z,94
2022-12-03T13:11:48.816Z,94
2022-12-03T13:21:48.867Z,94
2022-12-03T13:31:49.043Z,92
2022-12-03T13:41:48.882Z,92
2022-12-03T13:51:48.987Z,92
2022-12-03T14:01:48.933Z,89
2022-12-03T14:11:48.967Z,90
2022-12-03T14:21:48.856Z,90
2022-12-03T14:31:49.038Z,91
2022-12-03T14:41:49.035Z,91
2022-12-03T14:51:48.958Z,90
2022-12-03T15:01:49.089Z,90
2022-12-03T15:11:48.962Z,89
2022-12-03T15:21:49.048Z,86
2022-12-03T15:31:49.059Z,83
2022-12-03T15:41:49.047Z,79
2022-12-03T15:51:48.967Z,71
2022-12-03T16:01:49.124Z,59
2022-12-03T16:11:49.141Z,36
2022-12-03T16:21:49.747Z,14
2022-12-03T16:31:49.445Z,5
2022-12-03T16:41:48.969Z,1
2022-12-03T16:51:49.098Z,1
2022-12-03T17:01:49.231Z,1
2022-12-03T17:11:49.097Z,1
2022-12-03T17:21:49.171Z,1
2022-12-03T17:31:49.236Z,1
2022-12-03T17:41:49.180Z,1
2022-12-03T17:51:49.101Z,1
2022-12-03T18:01:49.185Z,1
2022-12-03T18:11:49.088Z,1
2022-12-03T18:21:49.169Z,2
2022-12-03T18:31:49.349Z,1
2022-12-03T18:41:49.170Z,1
2022-12-03T18:51:51.314Z,1
2022-12-03T19:01:49.195Z,1
2022-12-03T19:11:49.294Z,1
2022-12-03T19:21:49.170Z,1
2022-12-03T19:31:49.329Z,1
2022-12-03T19:41:49.161Z,1
2022-12-03T19:51:49.295Z,1
2022-12-03T20:01:49.517Z,1
2022-12-03T20:11:49.285Z,2
2022-12-03T20:21:49.375Z,1
2022-12-03T20:31:49.330Z,1
2022-12-03T20:41:49.343Z,1
2022-12-03T20:51:49.292Z,1
2022-12-03T21:01:49.400Z,1
2022-12-03T21:11:49.295Z,1
2022-12-03T21:21:49.355Z,1
2022-12-03T21:31:49.482Z,1
2022-12-03T21:42:19.630Z,2
2022-12-03T21:51:49.470Z,2
2022-12-03T22:01:49.406Z,1
2022-12-03T22:11:49.478Z,2
2022-12-03T22:21:49.337Z,2
2022-12-03T22:31:49.455Z,2
2022-12-03T22:41:49.546Z,1
2022-12-03T22:51:49.458Z,1
2022-12-03T23:01:49.513Z,1
2022-12-03T23:11:49.439Z,2
2022-12-03T23:21:49.511Z,2
2022-12-03T23:31:49.542Z,1
2022-12-03T23:41:49.511Z,1
2022-12-03T23:51:49.432Z,1
